sensor_id;sensor_type;location;lat;lon;timestamp;temperature;humidity
21891;DHT22;11110;52.386;16.940;2024-03-08T00:00:37;17.10;38.60
21891;DHT22;11110;52.386;16.940;2024-03-08T00:03:27;17.00;39.20
21891;DHT22;11110;52.386;16.940;2024-03-08T00:05:57;17.00;38.40
21891;DHT22;11110;52.386;16.940;2024-03-08T00:08:26;16.90;38.40
21891;DHT22;11110;52.386;16.940;2024-03-08T00:10:55;16.90;38.40
21891;DHT22;11110;52.386;16.940;2024-03-08T00:13:23;16.90;38.40
21891;DHT22;11110;52.386;16.940;2024-03-08T00:15:52;16.90;38.40
21891;DHT22;11110;52.386;16.940;2024-03-08T00:18:21;16.90;38.60
21891;DHT22;11110;52.386;16.940;2024-03-08T00:20:49;16.90;38.90
21891;DHT22;11110;52.386;16.940;2024-03-08T00:23:19;16.80;39.00
21891;DHT22;11110;52.386;16.940;2024-03-08T00:25:48;16.80;39.10
21891;DHT22;11110;52.386;16.940;2024-03-08T00:28:16;16.80;39.00
21891;DHT22;11110;52.386;16.940;2024-03-08T00:30:46;16.80;39.00
21891;DHT22;11110;52.386;16.940;2024-03-08T00:33:14;16.80;39.00
21891;DHT22;11110;52.386;16.940;2024-03-08T00:35:43;16.80;39.00
21891;DHT22;11110;52.386;16.940;2024-03-08T00:38:12;16.80;39.10
21891;DHT22;11110;52.386;16.940;2024-03-08T00:40:42;16.80;39.10
21891;DHT22;11110;52.386;16.940;2024-03-08T00:43:10;16.70;39.00
21891;DHT22;11110;52.386;16.940;2024-03-08T00:45:39;16.70;39.00
21891;DHT22;11110;52.386;16.940;2024-03-08T00:48:09;16.70;39.20
21891;DHT22;11110;52.386;16.940;2024-03-08T00:50:38;16.70;39.20
21891;DHT22;11110;52.386;16.940;2024-03-08T00:53:07;16.70;39.20
21891;DHT22;11110;52.386;16.940;2024-03-08T00:55:38;16.70;39.20
21891;DHT22;11110;52.386;16.940;2024-03-08T00:58:08;16.60;39.30
21891;DHT22;11110;52.386;16.940;2024-03-08T01:00:37;16.60;39.30
21891;DHT22;11110;52.386;16.940;2024-03-08T01:03:06;16.60;39.40
21891;DHT22;11110;52.386;16.940;2024-03-08T01:05:37;16.60;39.40
21891;DHT22;11110;52.386;16.940;2024-03-08T01:08:06;16.60;39.50
21891;DHT22;11110;52.386;16.940;2024-03-08T01:10:35;16.60;39.50
21891;DHT22;11110;52.386;16.940;2024-03-08T01:13:04;16.60;39.50
21891;DHT22;11110;52.386;16.940;2024-03-08T01:15:34;16.50;39.50
21891;DHT22;11110;52.386;16.940;2024-03-08T01:18:03;16.50;39.40
21891;DHT22;11110;52.386;16.940;2024-03-08T01:20:32;16.50;39.50
21891;DHT22;11110;52.386;16.940;2024-03-08T01:23:01;16.50;39.50
21891;DHT22;11110;52.386;16.940;2024-03-08T01:25:29;16.50;39.50
21891;DHT22;11110;52.386;16.940;2024-03-08T01:27:59;16.50;39.40
21891;DHT22;11110;52.386;16.940;2024-03-08T01:30:27;16.50;39.30
21891;DHT22;11110;52.386;16.940;2024-03-08T01:32:57;16.50;39.40
21891;DHT22;11110;52.386;16.940;2024-03-08T01:35:26;16.50;39.40
21891;DHT22;11110;52.386;16.940;2024-03-08T01:37:54;16.50;39.40
21891;DHT22;11110;52.386;16.940;2024-03-08T01:40:23;16.50;39.30
21891;DHT22;11110;52.386;16.940;2024-03-08T01:42:51;16.50;39.40
21891;DHT22;11110;52.386;16.940;2024-03-08T01:45:21;16.50;39.40
21891;DHT22;11110;52.386;16.940;2024-03-08T01:47:49;16.50;39.40
21891;DHT22;11110;52.386;16.940;2024-03-08T01:50:20;16.50;39.30
21891;DHT22;11110;52.386;16.940;2024-03-08T01:52:48;16.40;39.30
21891;DHT22;11110;52.386;16.940;2024-03-08T01:55:17;16.40;40.00
21891;DHT22;11110;52.386;16.940;2024-03-08T01:57:45;16.40;39.40
21891;DHT22;11110;52.386;16.940;2024-03-08T02:00:14;16.40;39.40
21891;DHT22;11110;52.386;16.940;2024-03-08T02:02:43;16.40;39.50
21891;DHT22;11110;52.386;16.940;2024-03-08T02:05:15;16.40;39.50
21891;DHT22;11110;52.386;16.940;2024-03-08T02:07:44;16.40;39.50
21891;DHT22;11110;52.386;16.940;2024-03-08T02:10:13;16.40;39.50
21891;DHT22;11110;52.386;16.940;2024-03-08T02:12:42;16.40;39.60
21891;DHT22;11110;52.386;16.940;2024-03-08T02:15:11;16.40;39.50
21891;DHT22;11110;52.386;16.940;2024-03-08T02:17:39;16.40;39.50
21891;DHT22;11110;52.386;16.940;2024-03-08T02:20:10;16.30;39.40
21891;DHT22;11110;52.386;16.940;2024-03-08T02:22:42;16.30;39.50
21891;DHT22;11110;52.386;16.940;2024-03-08T02:25:11;16.30;39.40
21891;DHT22;11110;52.386;16.940;2024-03-08T02:27:40;16.30;39.50
21891;DHT22;11110;52.386;16.940;2024-03-08T02:30:09;16.30;39.40
21891;DHT22;11110;52.386;16.940;2024-03-08T02:32:40;16.30;39.50
21891;DHT22;11110;52.386;16.940;2024-03-08T02:35:08;16.30;39.40
21891;DHT22;11110;52.386;16.940;2024-03-08T02:37:37;16.30;39.50
21891;DHT22;11110;52.386;16.940;2024-03-08T02:40:09;16.20;39.50
21891;DHT22;11110;52.386;16.940;2024-03-08T02:42:39;16.20;39.60
21891;DHT22;11110;52.386;16.940;2024-03-08T02:45:08;16.20;39.60
21891;DHT22;11110;52.386;16.940;2024-03-08T02:47:37;16.20;39.60
21891;DHT22;11110;52.386;16.940;2024-03-08T02:50:06;16.20;39.50
21891;DHT22;11110;52.386;16.940;2024-03-08T02:52:35;16.20;39.50
21891;DHT22;11110;52.386;16.940;2024-03-08T02:55:05;16.20;39.50
21891;DHT22;11110;52.386;16.940;2024-03-08T02:57:37;16.20;39.50
21891;DHT22;11110;52.386;16.940;2024-03-08T03:00:07;16.20;39.40
21891;DHT22;11110;52.386;16.940;2024-03-08T03:02:36;16.10;39.40
21891;DHT22;11110;52.386;16.940;2024-03-08T03:05:06;16.10;39.50
21891;DHT22;11110;52.386;16.940;2024-03-08T03:07:36;16.10;39.60
21891;DHT22;11110;52.386;16.940;2024-03-08T03:10:06;16.10;39.50
21891;DHT22;11110;52.386;16.940;2024-03-08T03:12:36;16.10;39.60
21891;DHT22;11110;52.386;16.940;2024-03-08T03:15:06;16.10;39.60
21891;DHT22;11110;52.386;16.940;2024-03-08T03:17:35;16.10;39.60
21891;DHT22;11110;52.386;16.940;2024-03-08T03:20:05;16.00;39.60
21891;DHT22;11110;52.386;16.940;2024-03-08T03:22:37;16.10;39.60
21891;DHT22;11110;52.386;16.940;2024-03-08T03:25:06;16.00;39.60
21891;DHT22;11110;52.386;16.940;2024-03-08T03:27:38;16.10;39.80
21891;DHT22;11110;52.386;16.940;2024-03-08T03:30:08;16.10;39.90
21891;DHT22;11110;52.386;16.940;2024-03-08T03:32:49;16.10;39.90
21891;DHT22;11110;52.386;16.940;2024-03-08T03:35:19;16.10;39.90
21891;DHT22;11110;52.386;16.940;2024-03-08T03:37:48;16.00;39.80
21891;DHT22;11110;52.386;16.940;2024-03-08T03:40:29;16.10;39.80
21891;DHT22;11110;52.386;16.940;2024-03-08T03:43:00;16.00;39.80
21891;DHT22;11110;52.386;16.940;2024-03-08T03:45:30;16.10;39.80
21891;DHT22;11110;52.386;16.940;2024-03-08T03:48:02;16.00;39.70
21891;DHT22;11110;52.386;16.940;2024-03-08T03:50:31;16.00;39.80
21891;DHT22;11110;52.386;16.940;2024-03-08T03:53:03;16.00;39.70
21891;DHT22;11110;52.386;16.940;2024-03-08T03:55:36;16.00;39.70
21891;DHT22;11110;52.386;16.940;2024-03-08T03:58:08;16.00;39.60
21891;DHT22;11110;52.386;16.940;2024-03-08T04:00:38;16.00;39.60
21891;DHT22;11110;52.386;16.940;2024-03-08T04:03:07;16.00;39.70
21891;DHT22;11110;52.386;16.940;2024-03-08T04:05:37;16.00;39.80
21891;DHT22;11110;52.386;16.940;2024-03-08T04:08:06;16.00;39.80
21891;DHT22;11110;52.386;16.940;2024-03-08T04:10:35;15.90;39.70
21891;DHT22;11110;52.386;16.940;2024-03-08T04:13:04;16.00;39.90
21891;DHT22;11110;52.386;16.940;2024-03-08T04:15:34;15.90;39.80
21891;DHT22;11110;52.386;16.940;2024-03-08T04:18:02;15.90;39.80
21891;DHT22;11110;52.386;16.940;2024-03-08T04:20:31;15.90;39.80
21891;DHT22;11110;52.386;16.940;2024-03-08T04:23:00;15.90;39.90
21891;DHT22;11110;52.386;16.940;2024-03-08T04:25:28;15.90;39.90
21891;DHT22;11110;52.386;16.940;2024-03-08T04:27:58;15.90;39.90
21891;DHT22;11110;52.386;16.940;2024-03-08T04:30:26;15.90;39.90
21891;DHT22;11110;52.386;16.940;2024-03-08T04:32:56;15.90;39.90
21891;DHT22;11110;52.386;16.940;2024-03-08T04:35:25;15.80;39.80
21891;DHT22;11110;52.386;16.940;2024-03-08T04:37:54;15.80;39.80
21891;DHT22;11110;52.386;16.940;2024-03-08T04:40:24;15.80;39.80
21891;DHT22;11110;52.386;16.940;2024-03-08T04:42:52;15.80;39.70
21891;DHT22;11110;52.386;16.940;2024-03-08T04:45:21;15.80;40.40
21891;DHT22;11110;52.386;16.940;2024-03-08T04:47:50;15.80;39.80
21891;DHT22;11110;52.386;16.940;2024-03-08T04:50:21;15.80;39.90
21891;DHT22;11110;52.386;16.940;2024-03-08T04:52:50;15.80;39.90
21891;DHT22;11110;52.386;16.940;2024-03-08T04:55:19;15.80;40.10
21891;DHT22;11110;52.386;16.940;2024-03-08T04:57:48;15.80;40.30
21891;DHT22;11110;52.386;16.940;2024-03-08T05:00:17;15.80;40.30
21891;DHT22;11110;52.386;16.940;2024-03-08T05:02:46;15.70;40.20
21891;DHT22;11110;52.386;16.940;2024-03-08T05:05:15;15.70;40.20
21891;DHT22;11110;52.386;16.940;2024-03-08T05:07:45;15.70;40.20
21891;DHT22;11110;52.386;16.940;2024-03-08T05:10:13;15.70;40.10
21891;DHT22;11110;52.386;16.940;2024-03-08T05:12:44;15.70;40.10
21891;DHT22;11110;52.386;16.940;2024-03-08T05:15:13;15.70;40.10
21891;DHT22;11110;52.386;16.940;2024-03-08T05:17:41;15.70;40.10
21891;DHT22;11110;52.386;16.940;2024-03-08T05:20:10;15.70;40.00
21891;DHT22;11110;52.386;16.940;2024-03-08T05:22:40;15.80;40.00
21891;DHT22;11110;52.386;16.940;2024-03-08T05:25:10;15.70;40.00
21891;DHT22;11110;52.386;16.940;2024-03-08T05:27:40;15.70;40.10
21891;DHT22;11110;52.386;16.940;2024-03-08T05:30:08;15.70;40.00
21891;DHT22;11110;52.386;16.940;2024-03-08T05:32:42;15.70;40.10
21891;DHT22;11110;52.386;16.940;2024-03-08T05:35:11;15.70;40.10
21891;DHT22;11110;52.386;16.940;2024-03-08T05:37:43;15.70;40.10
21891;DHT22;11110;52.386;16.940;2024-03-08T05:40:13;15.60;40.10
21891;DHT22;11110;52.386;16.940;2024-03-08T05:42:45;15.70;40.20
21891;DHT22;11110;52.386;16.940;2024-03-08T05:45:14;15.70;40.10
21891;DHT22;11110;52.386;16.940;2024-03-08T05:47:43;15.70;40.10
21891;DHT22;11110;52.386;16.940;2024-03-08T05:50:11;15.70;40.10
21891;DHT22;11110;52.386;16.940;2024-03-08T05:52:40;15.70;40.20
21891;DHT22;11110;52.386;16.940;2024-03-08T05:55:08;15.70;40.20
21891;DHT22;11110;52.386;16.940;2024-03-08T05:57:39;15.70;40.20
21891;DHT22;11110;52.386;16.940;2024-03-08T06:00:08;15.70;40.20
21891;DHT22;11110;52.386;16.940;2024-03-08T06:02:41;15.70;40.20
21891;DHT22;11110;52.386;16.940;2024-03-08T06:05:10;15.70;40.10
21891;DHT22;11110;52.386;16.940;2024-03-08T06:07:39;15.70;40.10
21891;DHT22;11110;52.386;16.940;2024-03-08T06:10:09;15.70;40.10
21891;DHT22;11110;52.386;16.940;2024-03-08T06:12:41;15.80;40.10
21891;DHT22;11110;52.386;16.940;2024-03-08T06:15:12;15.80;40.20
21891;DHT22;11110;52.386;16.940;2024-03-08T06:17:42;15.80;40.20
21891;DHT22;11110;52.386;16.940;2024-03-08T06:20:11;15.80;40.30
21891;DHT22;11110;52.386;16.940;2024-03-08T06:22:41;15.80;40.30
21891;DHT22;11110;52.386;16.940;2024-03-08T06:25:10;15.80;40.30
21891;DHT22;11110;52.386;16.940;2024-03-08T06:27:43;15.80;40.30
21891;DHT22;11110;52.386;16.940;2024-03-08T06:30:14;15.80;40.40
21891;DHT22;11110;52.386;16.940;2024-03-08T06:32:43;15.80;40.40
21891;DHT22;11110;52.386;16.940;2024-03-08T06:35:12;15.90;40.50
21891;DHT22;11110;52.386;16.940;2024-03-08T06:37:43;15.90;40.40
21891;DHT22;11110;52.386;16.940;2024-03-08T06:40:12;15.90;40.30
21891;DHT22;11110;52.386;16.940;2024-03-08T06:42:43;15.90;40.30
21891;DHT22;11110;52.386;16.940;2024-03-08T06:45:12;16.00;40.30
21891;DHT22;11110;52.386;16.940;2024-03-08T06:47:46;16.00;40.30
21891;DHT22;11110;52.386;16.940;2024-03-08T06:50:15;16.00;40.40
21891;DHT22;11110;52.386;16.940;2024-03-08T06:52:44;16.00;40.40
21891;DHT22;11110;52.386;16.940;2024-03-08T06:55:15;16.00;40.40
21891;DHT22;11110;52.386;16.940;2024-03-08T06:57:46;16.10;40.30
21891;DHT22;11110;52.386;16.940;2024-03-08T07:00:14;16.10;40.30
21891;DHT22;11110;52.386;16.940;2024-03-08T07:02:46;16.20;40.40
21891;DHT22;11110;52.386;16.940;2024-03-08T07:05:17;16.20;40.40
21891;DHT22;11110;52.386;16.940;2024-03-08T07:07:46;16.20;40.30
21891;DHT22;11110;52.386;16.940;2024-03-08T07:10:16;16.20;40.30
21891;DHT22;11110;52.386;16.940;2024-03-08T07:12:47;16.30;40.30
21891;DHT22;11110;52.386;16.940;2024-03-08T07:15:15;16.30;40.30
21891;DHT22;11110;52.386;16.940;2024-03-08T07:17:47;16.40;40.50
21891;DHT22;11110;52.386;16.940;2024-03-08T07:20:16;16.40;40.50
21891;DHT22;11110;52.386;16.940;2024-03-08T07:22:46;16.40;40.40
21891;DHT22;11110;52.386;16.940;2024-03-08T07:25:18;16.50;40.40
21891;DHT22;11110;52.386;16.940;2024-03-08T07:27:52;16.60;40.40
21891;DHT22;11110;52.386;16.940;2024-03-08T07:30:22;16.60;40.30
21891;DHT22;11110;52.386;16.940;2024-03-08T07:33:17;16.70;40.10
21891;DHT22;11110;52.386;16.940;2024-03-08T07:35:46;16.70;40.00
21891;DHT22;11110;52.386;16.940;2024-03-08T07:38:14;16.80;40.00
21891;DHT22;11110;52.386;16.940;2024-03-08T07:40:43;16.80;39.80
21891;DHT22;11110;52.386;16.940;2024-03-08T07:43:14;16.90;39.70
21891;DHT22;11110;52.386;16.940;2024-03-08T07:45:43;16.90;39.60
21891;DHT22;11110;52.386;16.940;2024-03-08T07:48:12;16.90;39.40
21891;DHT22;11110;52.386;16.940;2024-03-08T07:50:41;17.00;39.20
21891;DHT22;11110;52.386;16.940;2024-03-08T07:53:10;17.00;39.10
21891;DHT22;11110;52.386;16.940;2024-03-08T07:55:38;17.10;39.00
21891;DHT22;11110;52.386;16.940;2024-03-08T07:58:10;17.10;39.00
21891;DHT22;11110;52.386;16.940;2024-03-08T08:00:40;17.20;39.00
21891;DHT22;11110;52.386;16.940;2024-03-08T08:03:10;16.60;39.30
21891;DHT22;11110;52.386;16.940;2024-03-08T08:05:39;17.30;38.80
21891;DHT22;11110;52.386;16.940;2024-03-08T08:08:08;17.30;38.80
21891;DHT22;11110;52.386;16.940;2024-03-08T08:10:38;17.40;38.80
21891;DHT22;11110;52.386;16.940;2024-03-08T08:13:07;17.40;38.70
21891;DHT22;11110;52.386;16.940;2024-03-08T08:15:36;17.50;38.80
21891;DHT22;11110;52.386;16.940;2024-03-08T08:18:06;17.50;38.80
21891;DHT22;11110;52.386;16.940;2024-03-08T08:20:37;17.60;38.60
21891;DHT22;11110;52.386;16.940;2024-03-08T08:23:05;17.60;38.60
21891;DHT22;11110;52.386;16.940;2024-03-08T08:25:34;17.60;38.60
21891;DHT22;11110;52.386;16.940;2024-03-08T08:28:03;17.70;39.30
21891;DHT22;11110;52.386;16.940;2024-03-08T08:30:32;17.70;38.40
21891;DHT22;11110;52.386;16.940;2024-03-08T08:33:01;17.80;38.30
21891;DHT22;11110;52.386;16.940;2024-03-08T08:35:32;17.80;38.30
21891;DHT22;11110;52.386;16.940;2024-03-08T08:38:01;17.90;38.20
21891;DHT22;11110;52.386;16.940;2024-03-08T08:40:31;17.90;38.20
21891;DHT22;11110;52.386;16.940;2024-03-08T08:43:00;18.00;38.30
21891;DHT22;11110;52.386;16.940;2024-03-08T08:45:31;18.00;38.90
21891;DHT22;11110;52.386;16.940;2024-03-08T08:48:00;18.10;38.20
21891;DHT22;11110;52.386;16.940;2024-03-08T08:50:29;18.00;38.30
21891;DHT22;11110;52.386;16.940;2024-03-08T08:52:59;18.10;38.40
21891;DHT22;11110;52.386;16.940;2024-03-08T08:55:28;18.00;38.10
21891;DHT22;11110;52.386;16.940;2024-03-08T08:57:58;18.00;38.10
21891;DHT22;11110;52.386;16.940;2024-03-08T09:00:26;18.10;38.30
21891;DHT22;11110;52.386;16.940;2024-03-08T09:02:55;18.20;38.10
21891;DHT22;11110;52.386;16.940;2024-03-08T09:05:26;18.20;38.00
21891;DHT22;11110;52.386;16.940;2024-03-08T09:07:55;18.30;38.30
21891;DHT22;11110;52.386;16.940;2024-03-08T09:10:25;18.30;38.20
21891;DHT22;11110;52.386;16.940;2024-03-08T09:12:57;18.40;38.20
21891;DHT22;11110;52.386;16.940;2024-03-08T09:15:27;18.40;37.60
21891;DHT22;11110;52.386;16.940;2024-03-08T09:17:56;18.50;37.60
21891;DHT22;11110;52.386;16.940;2024-03-08T09:20:26;18.50;37.60
21891;DHT22;11110;52.386;16.940;2024-03-08T09:22:57;18.50;37.60
21891;DHT22;11110;52.386;16.940;2024-03-08T09:25:27;18.50;37.50
21891;DHT22;11110;52.386;16.940;2024-03-08T09:27:56;18.50;37.40
21891;DHT22;11110;52.386;16.940;2024-03-08T09:30:24;18.50;37.30
21891;DHT22;11110;52.386;16.940;2024-03-08T09:32:53;18.50;37.90
21891;DHT22;11110;52.386;16.940;2024-03-08T09:35:24;18.60;37.20
21891;DHT22;11110;52.386;16.940;2024-03-08T09:37:53;18.60;37.20
21891;DHT22;11110;52.386;16.940;2024-03-08T09:40:23;18.70;37.10
21891;DHT22;11110;52.386;16.940;2024-03-08T09:42:54;18.70;36.90
21891;DHT22;11110;52.386;16.940;2024-03-08T09:45:25;18.80;36.70
21891;DHT22;11110;52.386;16.940;2024-03-08T09:47:54;18.80;36.70
21891;DHT22;11110;52.386;16.940;2024-03-08T09:50:23;18.90;36.70
21891;DHT22;11110;52.386;16.940;2024-03-08T09:52:55;19.00;37.10
21891;DHT22;11110;52.386;16.940;2024-03-08T09:55:25;19.10;36.80
21891;DHT22;11110;52.386;16.940;2024-03-08T09:58:01;19.00;36.40
21891;DHT22;11110;52.386;16.940;2024-03-08T10:01:03;19.10;36.40
21891;DHT22;11110;52.386;16.940;2024-03-08T10:03:33;19.20;36.50
21891;DHT22;11110;52.386;16.940;2024-03-08T10:06:03;19.30;36.20
21891;DHT22;11110;52.386;16.940;2024-03-08T10:08:33;19.40;35.80
21891;DHT22;11110;52.386;16.940;2024-03-08T10:11:02;19.40;35.60
21891;DHT22;11110;52.386;16.940;2024-03-08T10:13:32;19.40;35.60
21891;DHT22;11110;52.386;16.940;2024-03-08T10:16:01;19.50;35.20
21891;DHT22;11110;52.386;16.940;2024-03-08T10:18:30;19.60;35.40
21891;DHT22;11110;52.386;16.940;2024-03-08T10:21:05;19.60;34.50
21891;DHT22;11110;52.386;16.940;2024-03-08T10:23:35;19.70;34.40
21891;DHT22;11110;52.386;16.940;2024-03-08T10:26:11;19.70;34.30
21891;DHT22;11110;52.386;16.940;2024-03-08T10:28:44;19.70;34.20
21891;DHT22;11110;52.386;16.940;2024-03-08T10:31:15;19.80;34.40
21891;DHT22;11110;52.386;16.940;2024-03-08T10:33:46;19.80;34.20
21891;DHT22;11110;52.386;16.940;2024-03-08T10:36:15;19.80;34.40
21891;DHT22;11110;52.386;16.940;2024-03-08T10:38:44;19.90;34.40
21891;DHT22;11110;52.386;16.940;2024-03-08T10:41:16;20.00;34.40
21891;DHT22;11110;52.386;16.940;2024-03-08T10:43:57;20.10;34.60
21891;DHT22;11110;52.386;16.940;2024-03-08T10:46:43;20.10;34.00
21891;DHT22;11110;52.386;16.940;2024-03-08T10:49:17;20.20;33.90
21891;DHT22;11110;52.386;16.940;2024-03-08T10:51:46;20.10;33.80
21891;DHT22;11110;52.386;16.940;2024-03-08T10:54:20;20.20;34.10
21891;DHT22;11110;52.386;16.940;2024-03-08T10:56:49;20.30;34.30
21891;DHT22;11110;52.386;16.940;2024-03-08T10:59:20;20.30;34.00
21891;DHT22;11110;52.386;16.940;2024-03-08T11:01:49;20.40;33.90
21891;DHT22;11110;52.386;16.940;2024-03-08T11:04:18;20.40;33.60
21891;DHT22;11110;52.386;16.940;2024-03-08T11:06:51;20.50;33.80
21891;DHT22;11110;52.386;16.940;2024-03-08T11:09:28;20.60;33.40
21891;DHT22;11110;52.386;16.940;2024-03-08T11:12:22;20.70;33.40
21891;DHT22;11110;52.386;16.940;2024-03-08T11:14:56;20.80;33.20
21891;DHT22;11110;52.386;16.940;2024-03-08T11:17:44;20.80;33.80
21891;DHT22;11110;52.386;16.940;2024-03-08T11:20:14;20.80;33.00
21891;DHT22;11110;52.386;16.940;2024-03-08T11:22:48;20.90;33.10
21891;DHT22;11110;52.386;16.940;2024-03-08T11:25:33;21.00;33.30
21891;DHT22;11110;52.386;16.940;2024-03-08T11:28:11;21.10;33.00
21891;DHT22;11110;52.386;16.940;2024-03-08T11:30:47;21.00;32.50
21891;DHT22;11110;52.386;16.940;2024-03-08T11:33:16;21.10;32.40
21891;DHT22;11110;52.386;16.940;2024-03-08T11:35:46;21.20;32.50
21891;DHT22;11110;52.386;16.940;2024-03-08T11:38:14;21.30;32.00
21891;DHT22;11110;52.386;16.940;2024-03-08T11:40:46;21.40;32.20
21891;DHT22;11110;52.386;16.940;2024-03-08T11:43:16;21.50;32.30
21891;DHT22;11110;52.386;16.940;2024-03-08T11:45:46;21.60;32.20
21891;DHT22;11110;52.386;16.940;2024-03-08T11:48:15;21.70;31.80
21891;DHT22;11110;52.386;16.940;2024-03-08T11:50:44;21.70;31.70
21891;DHT22;11110;52.386;16.940;2024-03-08T11:53:12;21.80;31.70
21891;DHT22;11110;52.386;16.940;2024-03-08T11:55:41;21.80;31.70
21891;DHT22;11110;52.386;16.940;2024-03-08T11:58:12;21.90;31.70
21891;DHT22;11110;52.386;16.940;2024-03-08T12:00:41;22.00;31.70
21891;DHT22;11110;52.386;16.940;2024-03-08T12:03:11;22.10;31.30
21891;DHT22;11110;52.386;16.940;2024-03-08T12:05:40;22.30;31.30
21891;DHT22;11110;52.386;16.940;2024-03-08T12:08:10;22.20;31.00
21891;DHT22;11110;52.386;16.940;2024-03-08T12:10:40;22.30;31.00
21891;DHT22;11110;52.386;16.940;2024-03-08T12:13:10;22.40;31.30
21891;DHT22;11110;52.386;16.940;2024-03-08T12:15:41;22.40;31.10
21891;DHT22;11110;52.386;16.940;2024-03-08T12:18:12;22.50;30.70
21891;DHT22;11110;52.386;16.940;2024-03-08T12:20:41;22.60;30.90
21891;DHT22;11110;52.386;16.940;2024-03-08T12:23:16;22.70;30.90
21891;DHT22;11110;52.386;16.940;2024-03-08T12:25:45;22.80;30.60
21891;DHT22;11110;52.386;16.940;2024-03-08T12:28:14;23.00;30.80
21891;DHT22;11110;52.386;16.940;2024-03-08T12:30:47;23.00;30.70
21891;DHT22;11110;52.386;16.940;2024-03-08T12:33:17;23.20;30.50
21891;DHT22;11110;52.386;16.940;2024-03-08T12:35:52;23.10;29.90
21891;DHT22;11110;52.386;16.940;2024-03-08T12:38:23;23.30;30.00
21891;DHT22;11110;52.386;16.940;2024-03-08T12:40:55;23.40;30.00
21891;DHT22;11110;52.386;16.940;2024-03-08T12:43:25;23.50;29.60
21891;DHT22;11110;52.386;16.940;2024-03-08T12:45:58;23.50;30.00
21891;DHT22;11110;52.386;16.940;2024-03-08T12:48:28;23.70;29.70
21891;DHT22;11110;52.386;16.940;2024-03-08T12:50:56;23.70;29.40
21891;DHT22;11110;52.386;16.940;2024-03-08T12:53:25;23.80;29.20
21891;DHT22;11110;52.386;16.940;2024-03-08T12:55:56;23.80;29.30
21891;DHT22;11110;52.386;16.940;2024-03-08T12:58:34;23.80;29.20
21891;DHT22;11110;52.386;16.940;2024-03-08T13:01:04;24.00;29.20
21891;DHT22;11110;52.386;16.940;2024-03-08T13:03:34;24.00;29.00
21891;DHT22;11110;52.386;16.940;2024-03-08T13:06:05;24.00;28.90
21891;DHT22;11110;52.386;16.940;2024-03-08T13:08:35;24.00;28.70
21891;DHT22;11110;52.386;16.940;2024-03-08T13:11:06;24.00;28.90
21891;DHT22;11110;52.386;16.940;2024-03-08T13:13:37;24.00;29.10
21891;DHT22;11110;52.386;16.940;2024-03-08T13:16:07;24.00;29.00
21891;DHT22;11110;52.386;16.940;2024-03-08T13:18:36;24.10;29.10
21891;DHT22;11110;52.386;16.940;2024-03-08T13:21:05;24.10;29.00
21891;DHT22;11110;52.386;16.940;2024-03-08T13:23:35;24.20;29.10
21891;DHT22;11110;52.386;16.940;2024-03-08T13:26:07;24.30;29.40
21891;DHT22;11110;52.386;16.940;2024-03-08T13:28:36;24.40;29.20
21891;DHT22;11110;52.386;16.940;2024-03-08T13:31:05;24.50;29.10
21891;DHT22;11110;52.386;16.940;2024-03-08T13:33:37;24.60;29.00
21891;DHT22;11110;52.386;16.940;2024-03-08T13:36:07;24.80;29.00
21891;DHT22;11110;52.386;16.940;2024-03-08T13:38:42;24.90;28.30
21891;DHT22;11110;52.386;16.940;2024-03-08T13:41:12;25.00;28.60
21891;DHT22;11110;52.386;16.940;2024-03-08T13:43:44;25.10;28.10
21891;DHT22;11110;52.386;16.940;2024-03-08T13:46:14;25.10;28.00
21891;DHT22;11110;52.386;16.940;2024-03-08T13:48:47;25.00;28.20
21891;DHT22;11110;52.386;16.940;2024-03-08T13:51:18;25.10;28.10
21891;DHT22;11110;52.386;16.940;2024-03-08T13:53:47;25.10;28.50
21891;DHT22;11110;52.386;16.940;2024-03-08T13:56:15;25.10;28.00
21891;DHT22;11110;52.386;16.940;2024-03-08T13:58:45;25.10;28.40
21891;DHT22;11110;52.386;16.940;2024-03-08T14:01:17;25.20;28.30
21891;DHT22;11110;52.386;16.940;2024-03-08T14:03:45;25.10;27.90
21891;DHT22;11110;52.386;16.940;2024-03-08T14:06:14;25.10;28.20
21891;DHT22;11110;52.386;16.940;2024-03-08T14:08:49;25.10;28.30
21891;DHT22;11110;52.386;16.940;2024-03-08T14:11:18;25.20;28.00
21891;DHT22;11110;52.386;16.940;2024-03-08T14:13:48;25.20;28.10
21891;DHT22;11110;52.386;16.940;2024-03-08T14:16:17;25.30;28.30
21891;DHT22;11110;52.386;16.940;2024-03-08T14:18:45;25.30;28.00
21891;DHT22;11110;52.386;16.940;2024-03-08T14:21:14;25.30;28.10
21891;DHT22;11110;52.386;16.940;2024-03-08T14:23:44;25.30;28.10
21891;DHT22;11110;52.386;16.940;2024-03-08T14:26:15;25.30;28.00
21891;DHT22;11110;52.386;16.940;2024-03-08T14:28:44;25.40;28.00
21891;DHT22;11110;52.386;16.940;2024-03-08T14:31:15;25.40;28.10
21891;DHT22;11110;52.386;16.940;2024-03-08T14:33:46;25.30;27.90
21891;DHT22;11110;52.386;16.940;2024-03-08T14:36:17;25.30;28.00
21891;DHT22;11110;52.386;16.940;2024-03-08T14:38:47;25.40;27.80
21891;DHT22;11110;52.386;16.940;2024-03-08T14:41:16;25.30;27.70
21891;DHT22;11110;52.386;16.940;2024-03-08T14:43:44;25.30;27.60
21891;DHT22;11110;52.386;16.940;2024-03-08T14:46:16;25.40;27.30
21891;DHT22;11110;52.386;16.940;2024-03-08T14:48:45;25.40;27.20
21891;DHT22;11110;52.386;16.940;2024-03-08T14:51:18;25.40;27.20
21891;DHT22;11110;52.386;16.940;2024-03-08T14:53:48;25.50;27.60
21891;DHT22;11110;52.386;16.940;2024-03-08T14:56:18;25.50;27.60
21891;DHT22;11110;52.386;16.940;2024-03-08T14:58:46;25.50;27.50
21891;DHT22;11110;52.386;16.940;2024-03-08T15:01:18;25.40;27.30
21891;DHT22;11110;52.386;16.940;2024-03-08T15:03:51;25.50;27.10
21891;DHT22;11110;52.386;16.940;2024-03-08T15:06:20;25.40;26.90
21891;DHT22;11110;52.386;16.940;2024-03-08T15:08:48;25.40;27.20
21891;DHT22;11110;52.386;16.940;2024-03-08T15:11:17;25.30;27.20
21891;DHT22;11110;52.386;16.940;2024-03-08T15:13:49;25.20;27.10
21891;DHT22;11110;52.386;16.940;2024-03-08T15:16:22;25.10;27.00
21891;DHT22;11110;52.386;16.940;2024-03-08T15:18:51;25.10;26.90
21891;DHT22;11110;52.386;16.940;2024-03-08T15:21:21;25.00;27.00
21891;DHT22;11110;52.386;16.940;2024-03-08T15:23:53;24.90;27.20
21891;DHT22;11110;52.386;16.940;2024-03-08T15:26:22;24.70;27.30
21891;DHT22;11110;52.386;16.940;2024-03-08T15:28:53;24.70;27.60
21891;DHT22;11110;52.386;16.940;2024-03-08T15:31:24;24.60;27.50
21891;DHT22;11110;52.386;16.940;2024-03-08T15:33:55;24.60;27.80